Latest Weather Observations for Omeo

IDV60801

Issued at 4:32 pm EST Sunday 28 May 2017 (issued every 30 minutes, with the page automatically refreshed every 10 minutes)

About weather observations | Map of weather stations | Latest weather observations for VIC | Other Formats
Station Details ID: 083090 Name: OMEO Lat: -37.10 Lon: 147.60 Height: 689.8 m
Data from the previous 72 hours. | See also: Recent months at Omeo
Date/Time
EST
Temp
°C
App
Temp
°C
Dew
Point
°C
Rel
Hum
%
Delta-T
°C
Wind Press
QNH
hPa
Press
MSL
hPa
Rain since
9am
mm
Dir  Spd
km/h
Gust
km/h
Spd
kts
Gust
kts
28/04:30pm 8.0 2.1 1.4 63 2.8 NNW 22 37 12 20 1007.8 1007.8 0.2
28/04:00pm 8.4 2.9 1.6 62 2.9 N 20 35 11 19 1007.4 1007.4 0.2
28/03:30pm 9.3 3.1 1.9 60 3.2 NNW 24 33 13 18 1006.9 1007.0 0.2
28/03:00pm 9.8 3.3 2.6 61 3.2 NNW 26 35 14 19 1006.3 1006.3 0.2
28/02:30pm 10.4 5.1 3.2 61 3.3 NNW 20 32 11 17 1006.4 1006.4 0.2
28/02:00pm 10.5 4.5 3.1 60 3.4 NNW 24 35 13 19 1006.5 1006.5 0.2
28/01:30pm 9.1 2.0 3.3 67 2.6 NW 30 39 16 21 1006.7 1006.8 0.2
28/01:00pm 10.7 3.0 2.3 56 3.8 NW 32 50 17 27 1006.2 1006.2 0.2
28/12:54pm 11.2 4.4 3.0 57 3.7 NNW 28 50 15 27 1006.0 1006.0 0.2
28/12:30pm 10.8 5.0 4.3 64 3.0 NNW 24 33 13 18 1006.2 1006.2 0.2
28/12:00pm 10.4 5.5 5.0 69 2.6 NNW 20 32 11 17 1006.5 1006.5 0.2
28/11:30am 9.4 4.3 4.0 69 2.5 NNW 20 32 11 17 1007.1 1007.2 0.2
28/11:00am 9.5 3.7 4.3 70 2.4 N 24 35 13 19 1007.4 1007.4 0.0
28/10:30am 10.5 5.5 4.6 67 2.8 N 20 35 11 19 1007.3 1007.3 0.0
28/10:00am 9.2 4.7 5.9 80 1.6 N 19 26 10 14 1007.4 1007.4 0.0
28/09:30am 8.8 4.9 5.5 80 1.6 NNW 15 24 8 13 1007.5 1007.5 0.0
28/09:00am 7.8 4.0 5.9 88 0.9 NNW 15 22 8 12 1007.4 1007.4 4.0
28/08:30am 7.6 3.8 5.6 87 0.9 NNW 15 20 8 11 1007.5 1007.5 4.0
28/08:00am 8.0 3.3 5.3 83 1.3 N 19 35 10 19 1007.7 1007.7 4.0
28/07:30am 8.0 3.6 6.6 91 0.7 N 19 30 10 16 1007.6 1007.6 3.6
28/07:00am 8.3 3.6 5.9 85 1.1 N 20 28 11 15 1006.9 1007.0 2.6
28/06:30am 9.1 4.4 6.2 82 1.4 NNW 20 32 11 17 1007.9 1008.0 1.6
28/06:00am 9.3 5.8 7.1 86 1.1 N 15 20 8 11 1007.4 1007.4 0.6
28/05:30am 10.2 4.8 6.4 77 1.8 N 24 39 13 21 1007.5 1007.5 0.0
28/05:00am 10.8 5.8 6.4 74 2.2 N 22 32 12 17 1007.4 1007.4 0.0
28/04:37am 11.2 4.9 5.9 70 2.6 N 28 46 15 25 1006.9 1007.0 0.0
28/04:30am 11.2 4.9 5.9 70 2.6 N 28 39 15 21 1006.8 1006.9 0.0
28/04:00am 11.1 4.8 5.8 70 2.6 N 28 46 15 25 1007.3 1007.3 0.0
28/03:36am 11.0 4.8 6.0 71 2.4 N 28 46 15 25 1007.7 1007.7 0.0
28/03:30am 10.7 4.9 6.3 74 2.1 N 26 37 14 20 1007.9 1008.0 0.0
28/03:00am 10.6 5.1 6.0 73 2.2 NNW 24 35 13 19 1008.5 1008.6 0.0
28/02:30am 10.5 5.4 5.9 73 2.2 NNW 22 39 12 21 1009.1 1009.1 0.0
28/02:00am 10.4 6.2 5.8 73 2.2 NNW 17 30 9 16 1009.7 1009.8 0.0
28/01:30am 10.5 5.3 5.5 71 2.4 NNW 22 33 12 18 1010.0 1010.1 0.0
28/01:00am 10.5 6.0 5.9 73 2.2 NNW 19 37 10 20 1010.8 1010.9 0.0
28/12:30am 10.1 5.4 5.9 75 2.0 NNW 20 33 11 18 1011.2 1011.3 0.0
28/12:00am 9.9 5.8 6.1 77 1.8 NNW 17 22 9 12 1011.5 1011.6 0.0
 
Date/Time
EST
Temp
°C
App
Temp
°C
Dew
Point
°C
Rel
Hum
%
Delta-T
°C
Wind Press
QNH
hPa
Press
MSL
hPa
Rain since
9am
mm
Dir  Spd
km/h
Gust
km/h
Spd
kts
Gust
kts
27/11:30pm 9.7 5.6 6.2 79 1.7 N 17 24 9 13 1012.1 1012.2 0.0
27/11:00pm 10.1 5.1 6.3 77 1.8 NNW 22 35 12 19 1012.8 1013.0 0.0
27/10:30pm 10.1 5.6 6.3 77 1.8 N 19 32 10 17 1013.5 1013.6 0.0
27/10:00pm 9.8 6.4 5.8 76 1.9 N 13 26 7 14 1014.0 1014.1 0.0
27/09:30pm 9.6 5.4 5.8 77 1.8 N 17 24 9 13 1014.1 1014.3 0.0
27/09:00pm 9.5 5.4 6.2 80 1.6 NNW 17 24 9 13 1014.2 1014.4 0.0
27/08:30pm 9.3 5.2 6.2 81 1.5 NNW 17 20 9 11 1014.2 1014.4 0.0
27/08:00pm 9.4 4.9 6.3 81 1.5 NNW 19 26 10 14 1014.1 1014.3 0.0
27/07:30pm 9.3 6.0 6.4 82 1.4 NNW 13 20 7 11 1014.3 1014.5 0.0
27/07:00pm 9.1 5.7 5.8 80 1.6 NNW 13 22 7 12 1014.6 1014.8 0.0
27/06:30pm 9.3 5.8 5.3 76 1.9 NNW 13 19 7 10 1015.0 1015.1 0.0
27/06:00pm 9.4 5.8 4.8 73 2.1 NNW 13 19 7 10 1014.8 1015.0 0.0
27/05:30pm 9.8 5.8 5.0 72 2.3 N 15 19 8 10 1015.1 1015.2 0.0
27/05:00pm 10.3 6.3 5.1 70 2.5 N 15 19 8 10 1015.2 1015.3 0.0
27/04:30pm 11.2 6.9 5.1 66 2.9 NNW 17 22 9 12 1015.4 1015.6 0.0
27/04:00pm 12.3 7.3 4.8 60 3.6 N 20 32 11 17 1015.5 1015.7 0.0
27/03:30pm 12.8 7.8 4.8 58 3.8 N 20 33 11 18 1015.6 1015.8 0.0
27/03:00pm 12.9 7.6 4.8 58 3.9 N 22 32 12 17 1015.8 1016.0 0.0
27/02:30pm 12.7 7.8 4.9 59 3.7 N 20 30 11 16 1016.1 1016.3 0.0
27/02:00pm 13.4 8.5 5.1 57 4.0 N 20 30 11 16 1016.4 1016.6 0.0
27/01:30pm 13.9 9.3 5.8 58 4.0 N 19 32 10 17 1017.0 1017.2 0.0
27/01:00pm 13.4 8.8 5.8 60 3.7 N 19 26 10 14 1017.3 1017.5 0.0
27/12:30pm 14.1 9.0 6.0 58 4.0 N 22 32 12 17 1017.6 1017.8 0.0
27/12:00pm 13.4 9.5 7.0 65 3.2 N 17 24 9 13 1018.2 1018.4 0.0
27/11:30am 10.9 6.9 6.6 75 2.1 N 17 24 9 13 1018.9 1019.1 0.0
27/11:00am 11.0 7.4 6.9 76 2.0 N 15 24 8 13 1019.5 1019.8 0.0
27/10:30am 9.4 5.4 6.7 83 1.3 N 17 22 9 12 1020.1 1020.3 0.0
27/10:00am 7.6 4.2 6.1 90 0.7 N 13 20 7 11 1020.4 1020.7 0.0
27/09:30am 5.8 2.7 5.7 99 0.0 NNW 11 17 6 9 1020.6 1020.9 0.0
27/09:00am 4.4 0.7 4.3 99 0.0 WNW 13 15 7 8 1020.7 1021.0 0.0
27/08:30am 3.7 0.6 3.6 99 0.0 WNW 9 13 5 7 1020.8 1021.1 0.0
27/08:00am 3.5 0.0 3.4 99 0.0 WNW 11 13 6 7 1021.0 1021.3 0.0
27/07:30am 2.8 -0.1 2.7 99 0.0 WNW 7 13 4 7 1020.9 1021.2 0.0
27/07:00am 2.7 -0.2 2.6 99 0.0 WNW 7 11 4 6 1020.8 1021.1 0.0
27/06:30am 2.9 -0.3 2.8 99 0.0 WNW 9 13 5 7 1020.6 1020.9 0.0
27/06:00am 3.3 -0.3 3.2 99 0.0 WNW 11 19 6 10 1020.5 1020.8 0.0
27/05:30am 3.2 0.0 3.1 99 0.0 WNW 9 11 5 6 1020.3 1020.6 0.0
27/05:00am 3.3 0.1 3.2 99 0.0 NW 9 13 5 7 1020.5 1020.8 0.0
27/04:30am 2.9 -0.3 2.8 99 0.0 WNW 9 13 5 7 1020.5 1020.8 0.0
27/04:00am 2.9 -0.3 2.8 99 0.0 WNW 9 15 5 8 1020.7 1021.0 0.0
27/03:30am 3.6 0.9 3.5 99 0.0 WNW 7 11 4 6 1021.0 1021.3 0.0
27/03:00am 3.3 0.5 3.2 99 0.0 WNW 7 11 4 6 1021.3 1021.5 0.0
27/02:30am 3.6 1.1 3.5 99 0.0 WNW 6 9 3 5 1021.7 1022.0 0.0
27/02:00am 3.5 0.7 3.4 99 0.0 NNW 7 11 4 6 1021.7 1022.0 0.0
27/01:30am 3.1 0.3 3.0 99 0.0 N 7 9 4 5 1021.7 1022.0 0.0
27/01:00am 3.1 0.3 3.0 99 0.0 NNW 7 11 4 6 1021.8 1022.1 0.0
27/12:30am 2.7 -0.6 2.6 99 0.0 N 9 13 5 7 1022.1 1022.4 0.0
27/12:00am 2.3 -0.5 2.0 98 0.1 NNE 6 9 3 5 1022.2 1022.5 0.0
 
Date/Time
EST
Temp
°C
App
Temp
°C
Dew
Point
°C
Rel
Hum
%
Delta-T
°C
Wind Press
QNH
hPa
Press
MSL
hPa
Rain since
9am
mm
Dir  Spd
km/h
Gust
km/h
Spd
kts
Gust
kts
26/11:30pm 2.5 -0.5 2.1 97 0.2 NW 7 9 4 5 1021.9 1022.2 0.0
26/11:00pm 1.9 -0.7 1.2 95 0.3 WSW 4 11 2 6 1021.8 1022.1 0.0
26/10:30pm 2.5 0.8 1.8 95 0.3 CALM 0 0 0 0 1021.9 1022.2 0.0
26/10:00pm 3.5 1.6 2.9 96 0.3 WSW 2 7 1 4 1022.0 1022.3 0.0
26/09:30pm 4.0 2.6 3.4 96 0.3 CALM 0 0 0 0 1022.0 1022.3 0.0
26/09:00pm 4.6 3.3 3.9 95 0.3 CALM 0 6 0 3 1022.2 1022.5 0.0
26/08:30pm 5.6 4.5 4.9 95 0.3 CALM 0 4 0 2 1022.0 1022.3 0.0
26/08:00pm 6.2 4.4 5.3 94 0.4 NNW 4 9 2 5 1021.9 1022.2 0.0
26/07:30pm 6.5 4.2 5.5 93 0.5 NE 7 9 4 5 1021.9 1022.2 0.0
26/07:00pm 7.1 5.0 5.6 90 0.7 N 6 7 3 4 1021.6 1021.9 0.0
26/06:30pm 7.8 5.7 5.8 87 0.9 N 6 9 3 5 1021.4 1021.6 0.0
26/06:00pm 9.0 6.5 6.6 85 1.2 N 9 13 5 7 1021.3 1021.5 0.0
26/05:30pm 9.7 6.9 6.8 82 1.4 N 11 15 6 8 1020.8 1021.1 0.0
26/05:00pm 10.5 8.4 6.6 77 1.9 N 7 13 4 7 1020.7 1021.0 0.0
26/04:30pm 11.7 8.5 6.8 72 2.4 NNW 13 17 7 9 1020.6 1020.9 0.0
26/04:00pm 12.8 9.3 7.3 69 2.8 N 15 19 8 10 1020.4 1020.7 0.0
26/03:30pm 11.9 8.7 6.8 71 2.5 N 13 19 7 10 1020.3 1020.6 0.0
26/03:00pm 13.4 10.3 7.4 67 3.0 NNW 13 20 7 11 1020.3 1020.6 0.0
26/02:30pm 13.9 10.5 7.7 66 3.2 N 15 22 8 12 1020.2 1020.4 0.0
26/02:00pm 13.7 10.3 7.5 66 3.2 N 15 24 8 13 1020.3 1020.6 0.0
26/01:30pm 14.0 10.5 7.3 64 3.4 N 15 22 8 12 1020.5 1020.8 0.0
26/01:00pm 13.8 9.5 8.0 68 3.0 N 20 30 11 16 1020.6 1020.9 0.0
26/12:30pm 13.9 9.2 7.9 67 3.1 N 22 28 12 15 1020.9 1021.2 0.0
26/12:00pm 13.5 9.9 8.4 71 2.6 N 17 28 9 15 1021.6 1021.9 0.0
26/11:30am 12.7 9.0 8.0 73 2.4 N 17 24 9 13 1022.1 1022.4 0.0
26/11:00am 11.8 7.8 8.3 79 1.8 N 19 24 10 13 1022.3 1022.6 0.0
26/10:30am 10.9 7.2 7.8 81 1.6 N 17 24 9 13 1022.6 1022.9 0.0
26/10:00am 9.9 6.9 7.7 86 1.1 N 13 19 7 10 1023.0 1023.3 0.0
26/09:30am 9.8 6.8 7.7 87 1.0 N 13 19 7 10 1022.9 1023.2 0.0
26/09:00am 7.0 4.8 6.4 96 0.3 NNE 7 13 4 7 1023.1 1023.4 0.0
26/08:30am 6.3 4.2 5.9 97 0.2 N 6 9 3 5 1022.8 1023.1 0.0
26/08:00am 5.7 2.2 5.3 97 0.2 N 13 15 7 8 1022.3 1022.6 0.0
26/07:30am 6.2 3.1 5.6 96 0.3 N 11 15 6 8 1022.1 1022.4 0.0
26/07:00am 6.5 3.0 5.6 94 0.4 N 13 19 7 10 1021.9 1022.2 0.0
26/06:30am 7.1 3.3 6.0 93 0.5 N 15 19 8 10 1021.7 1022.0 0.0
26/06:00am 6.8 2.6 5.9 94 0.4 NNW 17 22 9 12 1021.3 1021.5 0.0
26/05:30am 6.8 3.0 5.9 94 0.4 NNW 15 22 8 12 1021.2 1021.4 0.0
26/05:00am 6.6 3.5 5.7 94 0.4 NNW 11 13 6 7 1021.2 1021.4 0.0
26/04:30am 6.5 3.8 5.6 94 0.4 NW 9 13 5 7 1021.2 1021.4 0.0
26/04:00am 6.2 3.9 5.5 95 0.3 NNE 7 13 4 7 1020.9 1021.2 0.0
26/03:30am 5.7 3.2 4.8 94 0.4 WNW 7 11 4 6 1021.0 1021.3 0.0
26/03:00am 5.4 2.9 4.7 95 0.3 NW 7 11 4 6 1020.9 1021.2 0.0
26/02:30am 5.4 2.1 4.5 94 0.4 NNW 11 13 6 7 1021.0 1021.3 0.0
26/02:00am 5.7 3.2 4.8 94 0.4 NNE 7 9 4 5 1021.2 1021.4 0.0
26/01:30am 5.6 2.3 4.7 94 0.4 N 11 15 6 8 1020.8 1021.1 0.0
26/01:00am 6.1 2.5 5.1 93 0.5 N 13 17 7 9 1021.0 1021.3 0.0
26/12:30am 6.1 2.5 5.1 93 0.5 N 13 19 7 10 1021.2 1021.4 0.0
26/12:00am 6.2 2.2 5.0 92 0.5 N 15 19 8 10 1020.8 1021.1 0.0
 
Date/Time
EST
Temp
°C
App
Temp
°C
Dew
Point
°C
Rel
Hum
%
Delta-T
°C
Wind Press
QNH
hPa
Press
MSL
hPa
Rain since
9am
mm
Dir  Spd
km/h
Gust
km/h
Spd
kts
Gust
kts
25/11:30pm 6.3 2.7 5.1 92 0.5 N 13 17 7 9 1021.0 1021.3 0.0
25/11:00pm 6.1 2.5 4.9 92 0.5 N 13 17 7 9 1021.2 1021.4 0.0
25/10:30pm 6.5 3.3 5.1 91 0.6 NNW 11 19 6 10 1020.9 1021.2 0.0
25/10:00pm 6.3 1.9 4.9 91 0.6 NNW 17 22 9 12 1020.8 1021.1 0.0
25/09:30pm 6.8 2.9 5.4 91 0.6 N 15 20 8 11 1020.8 1021.1 0.0
25/09:00pm 6.6 2.7 5.2 91 0.6 NNW 15 19 8 10 1020.9 1021.2 0.0
25/08:30pm 6.7 3.1 5.2 90 0.7 NNW 13 17 7 9 1020.9 1021.2 0.0
25/08:00pm 6.6 3.0 5.1 90 0.7 NNW 13 17 7 9 1020.9 1021.2 0.0
25/07:30pm 7.3 4.6 5.6 89 0.8 N 9 17 5 9 1021.0 1021.3 0.0
25/07:00pm 7.3 3.8 5.3 87 0.9 N 13 17 7 9 1021.2 1021.4 0.0
25/06:30pm 7.8 4.3 5.4 85 1.1 N 13 17 7 9 1021.0 1021.3 0.0
25/06:00pm 8.5 5.0 5.6 82 1.4 NNW 13 20 7 11 1020.6 1020.9 0.0
25/05:30pm 8.8 5.0 5.7 81 1.5 N 15 20 8 11 1020.1 1020.3 0.0
25/05:00pm 9.2 5.0 5.8 79 1.6 N 17 22 9 12 1019.9 1020.1 0.0

Other Formats:

Comma delimited format used in spreadsheet applications
http://www.bom.gov.au/fwo/IDV60801/IDV60801.94908.axf

JavaScript Object Notation format (JSON) in row-major order
http://www.bom.gov.au/fwo/IDV60801/IDV60801.94908.json